Time;durP1;ratioP1;P1;durP2;ratioP2;P2;SDS_P1;SDS_P2;PMS_P1;PMS_P2;Temp;Humidity;BMP_temperature;BMP_pressure;BME280_temperature;BME280_humidity;BME280_pressure;Samples;Min_cycle;Max_cycle;Signal;HPM_P1;HPM_P2
2022/03/03 00:00:01;;;;;;;;;;;;;;;;;;5055050;28;19913;-48
2022/03/03 00:02:26;;;;;;;;;;;;;;;;;;5055499;28;19999;-49
2022/03/03 00:04:52;;;;;;;;;;;;;;;;;;5054609;28;19913;-49
2022/03/03 00:07:17;;;;;;;;;;;;;;;;;;5055134;28;19916;-48
2022/03/03 00:09:42;;;;;;;;;;;;;;;;;;5054729;28;19913;-51
2022/03/03 00:12:07;;;;;;;;;;;;;;;;;;5054618;28;19980;-49
2022/03/03 00:14:32;;;;;;;;;;;;;;;;;;5054540;28;20364;-49
2022/03/03 00:16:57;;;;;;;;;;;;;;;;;;5055612;28;20381;-50
2022/03/03 00:19:22;;;;;;;;;;;;;;;;;;5054283;28;19912;-50
2022/03/03 00:21:47;;;;;;;;;;;;;;;;;;5054203;28;19952;-48
2022/03/03 00:24:12;;;;;;;;;;;;;;;;;;5054448;28;19974;-48
2022/03/03 00:26:37;;;;;;;;;;;;;;;;;;5047680;28;20371;-50
2022/03/03 00:29:03;;;;;;;;;;;;;;;;;;5053534;28;20260;-49
2022/03/03 00:31:28;;;;;;;;;;;;;;;;;;5054633;28;19913;-49
2022/03/03 00:33:53;;;;;;;;;;;;;;;;;;5054841;28;19913;-48
2022/03/03 00:36:18;;;;;;;;;;;;;;;;;;5054638;28;19913;-50
2022/03/03 00:38:43;;;;;;;;;;;;;;;;;;5054388;28;19931;-50
2022/03/03 00:41:08;;;;;;;;;;;;;;;;;;5054146;28;19916;-48
2022/03/03 00:43:33;;;;;;;;;;;;;;;;;;5054324;28;19924;-50
2022/03/03 00:45:59;;;;;;;;;;;;;;;;;;5053667;28;19909;-47
2022/03/03 00:48:24;;;;;;;;;;;;;;;;;;5054203;28;19915;-48
2022/03/03 00:50:49;;;;;;;;;;;;;;;;;;5053884;28;19920;-48
2022/03/03 00:53:14;;;;;;;;;;;;;;;;;;5054176;28;19917;-48
2022/03/03 00:55:39;;;;;;;;;;;;;;;;;;5036283;28;19916;-48
2022/03/03 00:58:04;;;;;;;;;;;;;;;;;;5052877;28;19913;-48
2022/03/03 01:00:29;;;;;;;;;;;;;;;;;;5054176;28;19915;-48
2022/03/03 01:02:54;;;;;;;;;;;;;;;;;;5053930;28;19973;-47
2022/03/03 01:05:19;;;;;;;;;;;;;;;;;;5053985;28;19909;-50
2022/03/03 01:07:44;;;;;;;;;;;;;;;;;;5053464;28;19948;-49
2022/03/03 01:10:10;;;;;;;;;;;;;;;;;;5054595;28;19944;-48
2022/03/03 01:12:35;;;;;;;;;;;;;;;;;;5054205;28;19995;-48
2022/03/03 01:15:00;;;;;;;;;;;;;;;;;;5053776;28;19956;-48
2022/03/03 01:17:25;;;;;;;;;;;;;;;;;;5053596;28;19975;-47
2022/03/03 01:19:50;;;;;;;;;;;;;;;;;;5053779;28;19952;-48
2022/03/03 01:22:16;;;;;;;;;;;;;;;;;;5053920;28;20033;-49
2022/03/03 01:24:41;;;;;;;;;;;;;;;;;;5053368;28;20002;-48
2022/03/03 01:27:06;;;;;;;;;;;;;;;;;;5053079;28;19917;-48
2022/03/03 01:29:31;;;;;;;;;;;;;;;;;;5053612;28;19908;-48
2022/03/03 01:31:56;;;;;;;;;;;;;;;;;;5053785;28;19908;-48
2022/03/03 01:34:21;;;;;;;;;;;;;;;;;;5053661;28;19912;-48
2022/03/03 01:36:47;;;;;;;;;;;;;;;;;;5053198;28;19913;-48
2022/03/03 01:39:12;;;;;;;;;;;;;;;;;;5053692;28;19916;-48
2022/03/03 01:41:38;;;;;;;;;;;;;;;;;;5057140;28;19917;-48
2022/03/03 01:44:03;;;;;;;;;;;;;;;;;;5057339;28;19909;-48
2022/03/03 01:46:28;;;;;;;;;;;;;;;;;;5056739;28;19936;-48
2022/03/03 01:48:53;;;;;;;;;;;;;;;;;;5057141;28;19916;-48
2022/03/03 01:51:19;;;;;;;;;;;;;;;;;;5056850;28;19923;-50
2022/03/03 01:53:44;;;;;;;;;;;;;;;;;;5057038;28;19927;-48
2022/03/03 01:56:09;;;;;;;;;;;;;;;;;;5056320;28;20007;-48
2022/03/03 01:58:34;;;;;;;;;;;;;;;;;;5057284;28;19908;-49
2022/03/03 02:00:59;;;;;;;;;;;;;;;;;;5056779;28;19967;-48
2022/03/03 02:03:24;;;;;;;;;;;;;;;;;;5056914;28;20276;-48
2022/03/03 02:05:49;;;;;;;;;;;;;;;;;;5056779;28;19908;-48
2022/03/03 02:08:14;;;;;;;;;;;;;;;;;;5056482;28;19913;-48
2022/03/03 02:10:40;;;;;;;;;;;;;;;;;;5056479;28;19952;-48
2022/03/03 02:13:05;;;;;;;;;;;;;;;;;;5056346;28;19944;-48
2022/03/03 02:15:30;;;;;;;;;;;;;;;;;;5056681;28;19995;-48
2022/03/03 02:17:55;;;;;;;;;;;;;;;;;;5056185;28;19913;-49
2022/03/03 02:20:21;;;;;;;;;;;;;;;;;;5056755;28;19909;-47
2022/03/03 02:22:46;;;;;;;;;;;;;;;;;;5056622;28;19913;-48
2022/03/03 02:25:11;;;;;;;;;;;;;;;;;;5056640;28;19916;-50
2022/03/03 02:27:36;;;;;;;;;;;;;;;;;;5055301;28;19924;-49
2022/03/03 02:30:01;;;;;;;;;;;;;;;;;;5056266;28;19916;-48
2022/03/03 02:32:26;;;;;;;;;;;;;;;;;;5056325;28;19923;-48
2022/03/03 02:34:52;;;;;;;;;;;;;;;;;;5056112;28;19913;-50
2022/03/03 02:37:17;;;;;;;;;;;;;;;;;;5055910;28;19925;-48
2022/03/03 02:39:42;;;;;;;;;;;;;;;;;;5056382;28;19916;-48
2022/03/03 02:42:09;;;;;;;;;;;;;;;;;;5056501;28;19913;-48
2022/03/03 02:44:34;;;;;;;;;;;;;;;;;;5055935;28;19913;-48
2022/03/03 02:46:59;;;;;;;;;;;;;;;;;;5055960;28;19935;-50
2022/03/03 02:49:25;;;;;;;;;;;;;;;;;;5056128;28;20271;-50
2022/03/03 02:51:50;;;;;;;;;;;;;;;;;;5055592;28;19917;-48
2022/03/03 02:54:15;;;;;;;;;;;;;;;;;;5055747;28;19921;-49
2022/03/03 02:59:25;;;;;;;;;;;;;;;;;;5056026;28;19916;-48
2022/03/03 03:01:50;;;;;;;;;;;;;;;;;;5055931;28;20256;-50
2022/03/03 03:04:15;;;;;;;;;;;;;;;;;;5055512;28;19959;-50
2022/03/03 03:06:41;;;;;;;;;;;;;;;;;;5055499;28;20333;-49
2022/03/03 03:09:06;;;;;;;;;;;;;;;;;;5055894;28;19908;-48
2022/03/03 03:11:31;;;;;;;;;;;;;;;;;;5055825;28;19916;-49
2022/03/03 03:13:56;;;;;;;;;;;;;;;;;;5055330;28;19920;-48
2022/03/03 03:16:21;;;;;;;;;;;;;;;;;;5055354;28;19913;-49
2022/03/03 03:18:46;;;;;;;;;;;;;;;;;;5037583;28;19915;-48
2022/03/03 03:21:11;;;;;;;;;;;;;;;;;;5055747;28;19916;-49
2022/03/03 03:23:36;;;;;;;;;;;;;;;;;;5054924;28;20383;-50
2022/03/03 03:26:01;;;;;;;;;;;;;;;;;;5054515;28;20326;-48
2022/03/03 03:28:26;;;;;;;;;;;;;;;;;;5055429;28;19978;-50
2022/03/03 03:30:52;;;;;;;;;;;;;;;;;;5055363;28;20275;-49
2022/03/03 03:33:17;;;;;;;;;;;;;;;;;;5054732;28;20320;-48
2022/03/03 03:35:42;;;;;;;;;;;;;;;;;;5054427;28;20346;-48
2022/03/03 03:38:07;;;;;;;;;;;;;;;;;;5055526;28;19919;-49
2022/03/03 03:40:32;;;;;;;;;;;;;;;;;;5055031;28;19912;-48
2022/03/03 03:42:57;;;;;;;;;;;;;;;;;;5055241;28;19948;-48
2022/03/03 03:45:22;;;;;;;;;;;;;;;;;;5055084;28;19909;-48
2022/03/03 03:47:47;;;;;;;;;;;;;;;;;;5054682;28;19924;-48
2022/03/03 03:50:12;;;;;;;;;;;;;;;;;;5054916;28;19908;-48
2022/03/03 03:52:38;;;;;;;;;;;;;;;;;;5041535;23;19929;-48
2022/03/03 03:55:03;;;;;;;;;;;;;;;;;;5054730;28;19913;-48
2022/03/03 03:57:28;;;;;;;;;;;;;;;;;;5054539;28;19912;-48
2022/03/03 03:59:53;;;;;;;;;;;;;;;;;;5054578;28;19913;-48
2022/03/03 04:02:18;;;;;;;;;;;;;;;;;;5054079;28;19913;-47
2022/03/03 04:04:43;;;;;;;;;;;;;;;;;;5054759;28;19909;-48
2022/03/03 04:07:08;;;;;;;;;;;;;;;;;;5054628;28;19913;-47
2022/03/03 04:09:33;;;;;;;;;;;;;;;;;;5054770;28;20360;-48
2022/03/03 04:11:59;;;;;;;;;;;;;;;;;;5054415;28;19966;-50
2022/03/03 04:14:24;;;;;;;;;;;;;;;;;;5054724;28;19913;-48
2022/03/03 04:16:49;;;;;;;;;;;;;;;;;;5054424;28;19913;-50
2022/03/03 04:19:14;;;;;;;;;;;;;;;;;;5054740;28;19909;-49
2022/03/03 04:21:40;;;;;;;;;;;;;;;;;;5054437;28;19917;-48
2022/03/03 04:24:06;;;;;;;;;;;;;;;;;;5054672;28;20375;-49
2022/03/03 04:26:31;;;;;;;;;;;;;;;;;;5059234;28;19966;-48
2022/03/03 04:28:56;;;;;;;;;;;;;;;;;;5074820;28;20358;-47
2022/03/03 04:31:21;;;;;;;;;;;;;;;;;;5074496;28;20291;-48
2022/03/03 04:33:46;;;;;;;;;;;;;;;;;;5074775;28;20313;-48
2022/03/03 04:36:11;;;;;;;;;;;;;;;;;;5073995;28;19919;-48
2022/03/03 04:38:36;;;;;;;;;;;;;;;;;;5074607;28;19943;-48
2022/03/03 04:41:01;;;;;;;;;;;;;;;;;;5074414;28;19987;-49
2022/03/03 04:43:26;;;;;;;;;;;;;;;;;;5074663;28;19983;-50
2022/03/03 04:45:51;;;;;;;;;;;;;;;;;;5073908;28;20366;-51
2022/03/03 04:48:17;;;;;;;;;;;;;;;;;;5074246;28;20286;-48
2022/03/03 04:50:42;;;;;;;;;;;;;;;;;;5074044;28;19935;-48
2022/03/03 04:53:07;;;;;;;;;;;;;;;;;;5074533;28;19920;-48
2022/03/03 04:55:32;;;;;;;;;;;;;;;;;;5073773;28;19916;-48
2022/03/03 04:57:57;;;;;;;;;;;;;;;;;;5074263;28;19920;-48
2022/03/03 05:00:22;;;;;;;;;;;;;;;;;;5074048;28;19915;-48
2022/03/03 05:02:47;;;;;;;;;;;;;;;;;;5074217;28;20027;-48
2022/03/03 05:05:13;;;;;;;;;;;;;;;;;;5074268;28;19915;-49
2022/03/03 05:07:38;;;;;;;;;;;;;;;;;;5088605;28;20394;-49
2022/03/03 05:10:03;;;;;;;;;;;;;;;;;;5094370;28;19912;-48
2022/03/03 05:12:28;;;;;;;;;;;;;;;;;;5094486;28;19908;-48
2022/03/03 05:14:53;;;;;;;;;;;;;;;;;;5097121;28;19927;-48
2022/03/03 05:17:18;;;;;;;;;;;;;;;;;;5085715;28;19920;-48
2022/03/03 05:19:43;;;;;;;;;;;;;;;;;;5078119;28;19908;-50
2022/03/03 05:22:09;;;;;;;;;;;;;;;;;;5078000;28;19984;-48
2022/03/03 05:24:34;;;;;;;;;;;;;;;;;;5078098;28;19916;-48
2022/03/03 05:26:59;;;;;;;;;;;;;;;;;;5076188;28;19919;-49
2022/03/03 05:29:25;;;;;;;;;;;;;;;;;;5077634;28;19912;-48
2022/03/03 05:31:50;;;;;;;;;;;;;;;;;;5077774;28;19988;-48
2022/03/03 05:34:15;;;;;;;;;;;;;;;;;;5077726;28;20028;-49
2022/03/03 05:36:40;;;;;;;;;;;;;;;;;;5082725;28;19919;-51
2022/03/03 05:39:06;;;;;;;;;;;;;;;;;;5098107;28;19912;-48
2022/03/03 05:41:31;;;;;;;;;;;;;;;;;;5097974;28;19978;-48
2022/03/03 05:43:56;;;;;;;;;;;;;;;;;;5097872;28;20356;-48
2022/03/03 05:46:21;;;;;;;;;;;;;;;;;;5093925;28;19986;-49
2022/03/03 05:48:46;;;;;;;;;;;;;;;;;;5077796;28;19916;-48
2022/03/03 05:51:11;;;;;;;;;;;;;;;;;;5077239;28;19928;-48
2022/03/03 05:53:36;;;;;;;;;;;;;;;;;;5077362;28;19917;-50
2022/03/03 05:56:01;;;;;;;;;;;;;;;;;;5076321;28;19912;-48
2022/03/03 05:58:26;;;;;;;;;;;;;;;;;;5076998;28;19913;-49
2022/03/03 06:00:52;;;;;;;;;;;;;;;;;;5077459;28;19908;-48
2022/03/03 06:03:17;;;;;;;;;;;;;;;;;;5077293;28;19908;-48
2022/03/03 06:05:42;;;;;;;;;;;;;;;;;;5077142;28;19915;-51
2022/03/03 06:08:07;;;;;;;;;;;;;;;;;;5076728;28;19912;-49
2022/03/03 06:10:32;;;;;;;;;;;;;;;;;;5075727;28;20423;-48
2022/03/03 06:12:57;;;;;;;;;;;;;;;;;;5077000;28;20432;-51
2022/03/03 06:15:23;;;;;;;;;;;;;;;;;;5076922;28;19912;-48
2022/03/03 06:17:48;;;;;;;;;;;;;;;;;;5076542;28;20240;-48
2022/03/03 06:20:13;;;;;;;;;;;;;;;;;;5076966;28;19909;-50
2022/03/03 06:22:38;;;;;;;;;;;;;;;;;;5076989;28;19909;-48
2022/03/03 06:25:05;;;;;;;;;;;;;;;;;;5076334;28;19909;-49
2022/03/03 06:27:31;;;;;;;;;;;;;;;;;;5075177;28;19959;-48
2022/03/03 06:29:56;;;;;;;;;;;;;;;;;;5076902;28;19909;-49
2022/03/03 06:32:21;;;;;;;;;;;;;;;;;;5076816;28;20302;-49
2022/03/03 06:34:46;;;;;;;;;;;;;;;;;;5076661;28;19912;-48
2022/03/03 06:37:12;;;;;;;;;;;;;;;;;;5075967;28;19912;-48
2022/03/03 06:39:37;;;;;;;;;;;;;;;;;;5076638;28;19912;-48
2022/03/03 06:42:02;;;;;;;;;;;;;;;;;;5076678;28;19965;-49
2022/03/03 06:44:27;;;;;;;;;;;;;;;;;;5076697;28;20274;-49
2022/03/03 06:46:52;;;;;;;;;;;;;;;;;;5084257;28;20375;-48
2022/03/03 06:49:17;;;;;;;;;;;;;;;;;;5096564;28;20347;-48
2022/03/03 06:51:42;;;;;;;;;;;;;;;;;;5096337;28;19924;-48
2022/03/03 06:54:07;;;;;;;;;;;;;;;;;;5078347;28;20313;-49
2022/03/03 06:56:32;;;;;;;;;;;;;;;;;;5084419;28;20293;-48
2022/03/03 06:58:57;;;;;;;;;;;;;;;;;;5096324;28;19947;-48
2022/03/03 07:01:23;;;;;;;;;;;;;;;;;;5096411;28;19996;-49
2022/03/03 07:03:48;;;;;;;;;;;;;;;;;;5096346;28;20285;-51
2022/03/03 07:06:13;;;;;;;;;;;;;;;;;;5078825;28;19922;-48
2022/03/03 07:08:38;;;;;;;;;;;;;;;;;;5076076;28;20329;-48
2022/03/03 07:11:05;;;;;;;;;;;;;;;;;;5077157;28;19919;-48
2022/03/03 07:13:30;;;;;;;;;;;;;;;;;;5075783;28;19913;-48
2022/03/03 07:15:55;;;;;;;;;;;;;;;;;;5075523;28;19936;-48
2022/03/03 07:18:20;;;;;;;;;;;;;;;;;;5075648;28;19954;-48
2022/03/03 07:20:45;;;;;;;;;;;;;;;;;;5075778;28;19919;-47
2022/03/03 07:23:11;;;;;;;;;;;;;;;;;;5075690;28;19905;-48
2022/03/03 07:25:36;;;;;;;;;;;;;;;;;;5074845;28;20405;-48
2022/03/03 07:28:01;;;;;;;;;;;;;;;;;;5075152;28;20314;-48
2022/03/03 07:30:26;;;;;;;;;;;;;;;;;;5075577;28;19919;-48
2022/03/03 07:32:51;;;;;;;;;;;;;;;;;;5075495;28;19923;-48
2022/03/03 07:35:16;;;;;;;;;;;;;;;;;;5075111;28;19916;-48
2022/03/03 07:37:41;;;;;;;;;;;;;;;;;;5074477;28;19913;-50
2022/03/03 07:40:06;;;;;;;;;;;;;;;;;;5075203;28;19909;-49
2022/03/03 07:42:31;;;;;;;;;;;;;;;;;;5075393;28;20327;-48
2022/03/03 07:44:58;;;;;;;;;;;;;;;;;;5079759;28;19968;-48
2022/03/03 07:47:23;;;;;;;;;;;;;;;;;;5083425;28;20267;-48
2022/03/03 07:49:48;;;;;;;;;;;;;;;;;;5074985;28;20030;-50
2022/03/03 07:52:13;;;;;;;;;;;;;;;;;;5075281;28;19920;-50
2022/03/03 07:54:38;;;;;;;;;;;;;;;;;;5077285;28;19920;-49
2022/03/03 07:57:04;;;;;;;;;;;;;;;;;;5075859;28;19958;-48
2022/03/03 07:59:29;;;;;;;;;;;;;;;;;;5074678;28;20383;-49
2022/03/03 08:01:55;;;;;;;;;;;;;;;;;;5075032;28;19909;-49
2022/03/03 08:04:20;;;;;;;;;;;;;;;;;;5074904;28;20007;-49
2022/03/03 08:06:45;;;;;;;;;;;;;;;;;;5074216;28;20412;-49
2022/03/03 08:09:10;;;;;;;;;;;;;;;;;;5074552;28;19914;-48
2022/03/03 08:11:36;;;;;;;;;;;;;;;;;;5074865;28;19920;-50
2022/03/03 08:14:01;;;;;;;;;;;;;;;;;;5074808;28;19913;-49
2022/03/03 08:16:27;;;;;;;;;;;;;;;;;;5074715;28;19913;-50
2022/03/03 08:18:52;;;;;;;;;;;;;;;;;;5074695;28;19991;-50
2022/03/03 08:21:17;;;;;;;;;;;;;;;;;;5074754;28;19954;-51
2022/03/03 08:23:42;;;;;;;;;;;;;;;;;;5074804;28;19908;-49
2022/03/03 08:26:09;;;;;;;;;;;;;;;;;;5072601;28;20013;-49
2022/03/03 08:28:34;;;;;;;;;;;;;;;;;;5074655;28;19917;-51
2022/03/03 08:30:59;;;;;;;;;;;;;;;;;;5074639;28;19957;-49
2022/03/03 08:33:24;;;;;;;;;;;;;;;;;;5074552;28;19914;-51
2022/03/03 08:35:49;;;;;;;;;;;;;;;;;;5074262;28;19909;-51
2022/03/03 08:38:14;;;;;;;;;;;;;;;;;;5074569;28;19916;-52
2022/03/03 08:40:39;;;;;;;;;;;;;;;;;;5056773;28;19919;-49
2022/03/03 08:43:05;;;;;;;;;;;;;;;;;;5074472;28;19912;-49
2022/03/03 08:45:30;;;;;;;;;;;;;;;;;;5074367;28;19954;-49
2022/03/03 08:47:55;;;;;;;;;;;;;;;;;;5091034;28;19912;-50
2022/03/03 08:50:20;;;;;;;;;;;;;;;;;;5098288;28;19915;-49
2022/03/03 08:52:46;;;;;;;;;;;;;;;;;;5098633;28;19924;-48
2022/03/03 08:55:11;;;;;;;;;;;;;;;;;;5098692;28;19912;-50
2022/03/03 08:57:36;;;;;;;;;;;;;;;;;;5093943;28;19915;-50
2022/03/03 09:00:01;;;;;;;;;;;;;;;;;;5098686;28;19908;-51
2022/03/03 09:02:26;;;;;;;;;;;;;;;;;;5098076;28;19923;-50
2022/03/03 09:04:52;;;;;;;;;;;;;;;;;;5098662;28;19908;-53
2022/03/03 09:07:17;;;;;;;;;;;;;;;;;;5085947;28;19928;-49
2022/03/03 09:09:42;;;;;;;;;;;;;;;;;;5078169;28;19915;-50
2022/03/03 09:12:08;;;;;;;;;;;;;;;;;;5077882;28;19908;-50
2022/03/03 09:14:34;;;;;;;;;;;;;;;;;;5077826;28;19978;-52
2022/03/03 09:16:59;;;;;;;;;;;;;;;;;;5077829;28;19921;-50
2022/03/03 09:19:24;;;;;;;;;;;;;;;;;;5078000;28;20008;-50
2022/03/03 09:21:49;;;;;;;;;;;;;;;;;;5077989;28;19908;-51
2022/03/03 09:24:14;;;;;;;;;;;;;;;;;;5078043;28;19909;-51
2022/03/03 09:26:39;;;;;;;;;;;;;;;;;;5076741;28;19920;-52
2022/03/03 09:29:04;;;;;;;;;;;;;;;;;;5077904;28;19912;-51
2022/03/03 09:31:29;;;;;;;;;;;;;;;;;;5077969;28;19908;-49
2022/03/03 09:33:55;;;;;;;;;;;;;;;;;;5078083;28;19918;-52
2022/03/03 09:36:20;;;;;;;;;;;;;;;;;;5077620;28;19923;-50
2022/03/03 09:38:45;;;;;;;;;;;;;;;;;;5077638;28;19996;-48
2022/03/03 09:41:10;;;;;;;;;;;;;;;;;;5077556;28;19904;-49
2022/03/03 09:43:35;;;;;;;;;;;;;;;;;;5077279;28;20027;-49
2022/03/03 09:46:01;;;;;;;;;;;;;;;;;;5089907;28;19918;-49
2022/03/03 09:48:26;;;;;;;;;;;;;;;;;;5097891;28;19922;-49
2022/03/03 09:50:51;;;;;;;;;;;;;;;;;;5085930;28;19930;-51
2022/03/03 09:53:17;;;;;;;;;;;;;;;;;;5077237;28;20462;-49
2022/03/03 09:55:42;;;;;;;;;;;;;;;;;;5076656;28;19919;-49
2022/03/03 09:58:07;;;;;;;;;;;;;;;;;;5077221;28;19908;-50
2022/03/03 10:00:36;;;;;;;;;;;;;;;;;;5076126;28;19909;-49
2022/03/03 10:03:03;;;;;;;;;;;;;;;;;;5077836;28;19908;-48
2022/03/03 10:05:28;;;;;;;;;;;;;;;;;;5080823;28;19952;-51
2022/03/03 10:07:53;;;;;;;;;;;;;;;;;;5085373;28;19961;-51
2022/03/03 10:10:18;;;;;;;;;;;;;;;;;;5082672;28;19909;-49
2022/03/03 10:12:45;;;;;;;;;;;;;;;;;;5081236;28;19919;-50
2022/03/03 10:15:10;;;;;;;;;;;;;;;;;;5082048;28;19923;-49
2022/03/03 10:17:36;;;;;;;;;;;;;;;;;;5079536;28;19995;-51
2022/03/03 10:20:03;;;;;;;;;;;;;;;;;;5076424;28;20007;-52
2022/03/03 10:22:28;;;;;;;;;;;;;;;;;;5077268;28;20333;-51
2022/03/03 10:24:54;;;;;;;;;;;;;;;;;;5078574;28;19916;-49
2022/03/03 10:27:19;;;;;;;;;;;;;;;;;;5078099;28;19923;-51
2022/03/03 10:29:44;;;;;;;;;;;;;;;;;;5078623;28;19908;-48
2022/03/03 10:32:09;;;;;;;;;;;;;;;;;;5078533;28;19908;-50
2022/03/03 10:34:34;;;;;;;;;;;;;;;;;;5076960;28;19919;-52
2022/03/03 10:36:59;;;;;;;;;;;;;;;;;;5076862;28;19991;-52
2022/03/03 10:39:25;;;;;;;;;;;;;;;;;;5086228;28;19918;-49
2022/03/03 10:41:51;;;;;;;;;;;;;;;;;;5096940;28;19908;-49
2022/03/03 10:44:19;;;;;;;;;;;;;;;;;;5096838;28;20264;-52
2022/03/03 10:46:44;;;;;;;;;;;;;;;;;;5088401;28;19917;-50
2022/03/03 10:49:09;;;;;;;;;;;;;;;;;;5076260;28;19908;-52
2022/03/03 10:51:34;;;;;;;;;;;;;;;;;;5076071;28;20471;-52
2022/03/03 10:54:00;;;;;;;;;;;;;;;;;;5076304;28;19999;-50
2022/03/03 10:56:25;;;;;;;;;;;;;;;;;;5075291;28;20271;-51
2022/03/03 10:58:50;;;;;;;;;;;;;;;;;;5092635;28;19912;-51
2022/03/03 11:01:15;;;;;;;;;;;;;;;;;;5096435;28;19908;-49
2022/03/03 11:03:40;;;;;;;;;;;;;;;;;;5096318;28;19995;-49
2022/03/03 11:06:05;;;;;;;;;;;;;;;;;;5077281;28;19969;-50
2022/03/03 11:08:30;;;;;;;;;;;;;;;;;;5095190;28;20313;-52
2022/03/03 11:10:56;;;;;;;;;;;;;;;;;;5096233;28;20003;-50
2022/03/03 11:13:21;;;;;;;;;;;;;;;;;;5095917;28;19999;-51
2022/03/03 11:15:46;;;;;;;;;;;;;;;;;;5090336;28;19916;-49
2022/03/03 11:18:13;;;;;;;;;;;;;;;;;;5075115;28;19980;-51
2022/03/03 11:20:38;;;;;;;;;;;;;;;;;;5083587;28;20043;-52
2022/03/03 11:23:04;;;;;;;;;;;;;;;;;;5091176;28;20379;-50
2022/03/03 11:25:29;;;;;;;;;;;;;;;;;;5074517;28;20057;-51
2022/03/03 11:27:54;;;;;;;;;;;;;;;;;;5075338;28;19919;-50
2022/03/03 11:30:19;;;;;;;;;;;;;;;;;;5075553;28;19916;-49
2022/03/03 11:32:44;;;;;;;;;;;;;;;;;;5075631;28;19912;-48
2022/03/03 11:35:09;;;;;;;;;;;;;;;;;;5075443;28;19913;-50
2022/03/03 11:37:34;;;;;;;;;;;;;;;;;;5074834;28;19999;-50
2022/03/03 11:40:00;;;;;;;;;;;;;;;;;;5075249;28;20019;-49
2022/03/03 11:42:25;;;;;;;;;;;;;;;;;;5075513;28;19999;-50
2022/03/03 11:44:50;;;;;;;;;;;;;;;;;;5075492;28;20286;-50
2022/03/03 11:47:15;;;;;;;;;;;;;;;;;;5074406;28;20596;-49
2022/03/03 11:49:40;;;;;;;;;;;;;;;;;;5075130;28;19950;-50
2022/03/03 11:52:05;;;;;;;;;;;;;;;;;;5074403;28;19921;-50
2022/03/03 11:54:30;;;;;;;;;;;;;;;;;;5073713;28;19916;-51
2022/03/03 11:56:55;;;;;;;;;;;;;;;;;;5066948;28;20367;-49
2022/03/03 11:59:20;;;;;;;;;;;;;;;;;;5074976;28;20003;-52
2022/03/03 12:01:46;;;;;;;;;;;;;;;;;;5074972;28;19905;-49
2022/03/03 12:04:11;;;;;;;;;;;;;;;;;;5074676;28;19912;-49
2022/03/03 12:06:37;;;;;;;;;;;;;;;;;;5074465;28;19916;-50
2022/03/03 12:09:02;;;;;;;;;;;;;;;;;;5074626;28;19909;-50
2022/03/03 12:11:27;;;;;;;;;;;;;;;;;;5074908;28;19962;-50
2022/03/03 12:13:57;;;;;;;;;;;;;;;;;;5077542;28;19925;-52
2022/03/03 12:16:23;;;;;;;;;;;;;;;;;;5086412;28;19920;-51
2022/03/03 12:18:48;;;;;;;;;;;;;;;;;;5074751;28;19908;-50
2022/03/03 12:21:13;;;;;;;;;;;;;;;;;;5074433;28;19912;-49
2022/03/03 12:23:38;;;;;;;;;;;;;;;;;;5073962;28;20382;-52
2022/03/03 12:26:04;;;;;;;;;;;;;;;;;;5075625;28;20559;-50
2022/03/03 12:28:29;;;;;;;;;;;;;;;;;;5074331;28;19938;-52
2022/03/03 12:30:54;;;;;;;;;;;;;;;;;;5074564;28;19944;-50
2022/03/03 12:33:19;;;;;;;;;;;;;;;;;;5074282;28;19951;-49
2022/03/03 12:35:44;;;;;;;;;;;;;;;;;;5074539;28;19914;-50
2022/03/03 12:38:09;;;;;;;;;;;;;;;;;;5074088;28;19912;-49
2022/03/03 12:40:36;;;;;;;;;;;;;;;;;;5094725;28;19908;-49
2022/03/03 12:43:01;;;;;;;;;;;;;;;;;;5094549;28;19909;-52
2022/03/03 12:45:27;;;;;;;;;;;;;;;;;;5094565;28;19915;-51
2022/03/03 12:47:53;;;;;;;;;;;;;;;;;;5093974;28;19955;-52
2022/03/03 12:50:19;;;;;;;;;;;;;;;;;;5090124;28;19920;-49
2022/03/03 12:52:44;;;;;;;;;;;;;;;;;;5073921;28;20023;-49
2022/03/03 12:55:09;;;;;;;;;;;;;;;;;;5074381;28;20005;-48
2022/03/03 12:57:34;;;;;;;;;;;;;;;;;;5073546;28;19997;-48
2022/03/03 13:00:00;;;;;;;;;;;;;;;;;;5074371;28;19904;-48
2022/03/03 13:02:25;;;;;;;;;;;;;;;;;;5074271;28;19923;-49
2022/03/03 13:04:50;;;;;;;;;;;;;;;;;;5074216;28;19911;-49
2022/03/03 13:07:17;;;;;;;;;;;;;;;;;;5055611;28;19919;-49
2022/03/03 13:09:42;;;;;;;;;;;;;;;;;;5074081;28;19930;-49
2022/03/03 13:12:10;;;;;;;;;;;;;;;;;;5074058;28;19912;-48
2022/03/03 13:14:35;;;;;;;;;;;;;;;;;;5074203;28;19965;-50
2022/03/03 13:17:00;;;;;;;;;;;;;;;;;;5055959;28;19913;-49
2022/03/03 13:19:25;;;;;;;;;;;;;;;;;;5073981;28;19913;-50
2022/03/03 13:21:50;;;;;;;;;;;;;;;;;;5073755;28;19913;-49
2022/03/03 13:24:15;;;;;;;;;;;;;;;;;;5073958;28;19997;-49
2022/03/03 13:26:42;;;;;;;;;;;;;;;;;;5073420;28;19916;-49
2022/03/03 13:29:07;;;;;;;;;;;;;;;;;;5073912;28;20287;-49
2022/03/03 13:31:32;;;;;;;;;;;;;;;;;;5073957;28;19913;-49
2022/03/03 13:33:59;;;;;;;;;;;;;;;;;;5073842;28;20373;-49
2022/03/03 13:36:26;;;;;;;;;;;;;;;;;;5076854;28;19958;-49
2022/03/03 13:38:51;;;;;;;;;;;;;;;;;;5079539;28;19915;-49
2022/03/03 13:41:16;;;;;;;;;;;;;;;;;;5080270;28;19913;-49
2022/03/03 13:43:41;;;;;;;;;;;;;;;;;;5077224;28;19913;-49
2022/03/03 13:46:06;;;;;;;;;;;;;;;;;;5076977;28;19909;-49
2022/03/03 13:48:33;;;;;;;;;;;;;;;;;;5077289;28;20347;-50
2022/03/03 13:50:58;;;;;;;;;;;;;;;;;;5077225;28;19908;-50
2022/03/03 13:53:24;;;;;;;;;;;;;;;;;;5077275;28;19962;-51
2022/03/03 13:55:49;;;;;;;;;;;;;;;;;;5078091;28;19920;-51
2022/03/03 13:58:14;;;;;;;;;;;;;;;;;;5076961;28;19912;-49
2022/03/03 14:00:41;;;;;;;;;;;;;;;;;;5071147;28;20372;-49
2022/03/03 14:03:07;;;;;;;;;;;;;;;;;;5039455;28;20355;-48
2022/03/03 14:05:32;;;;;;;;;;;;;;;;;;5048665;28;19919;-50
2022/03/03 14:07:59;;;;;;;;;;;;;;;;;;5077122;28;19913;-50
2022/03/03 14:10:24;;;;;;;;;;;;;;;;;;5076972;28;19958;-48
2022/03/03 14:12:49;;;;;;;;;;;;;;;;;;5076770;28;19927;-49
2022/03/03 14:15:14;;;;;;;;;;;;;;;;;;5076132;28;20381;-48
2022/03/03 14:17:40;;;;;;;;;;;;;;;;;;5077010;28;19920;-50
2022/03/03 14:20:05;;;;;;;;;;;;;;;;;;5076938;28;19962;-48
2022/03/03 14:22:30;;;;;;;;;;;;;;;;;;5076808;28;20442;-48
2022/03/03 14:24:55;;;;;;;;;;;;;;;;;;5062128;28;20401;-48
2022/03/03 14:27:20;;;;;;;;;;;;;;;;;;5092217;28;19912;-51
2022/03/03 14:29:45;;;;;;;;;;;;;;;;;;5097157;28;19908;-48
2022/03/03 14:32:10;;;;;;;;;;;;;;;;;;5096846;28;19916;-50
2022/03/03 14:34:35;;;;;;;;;;;;;;;;;;5096839;28;20362;-51
2022/03/03 14:37:01;;;;;;;;;;;;;;;;;;5095369;28;19912;-48
2022/03/03 14:39:26;;;;;;;;;;;;;;;;;;5096632;28;19908;-48
2022/03/03 14:41:51;;;;;;;;;;;;;;;;;;5096736;28;20390;-50
2022/03/03 14:44:16;;;;;;;;;;;;;;;;;;5096471;28;19908;-48
2022/03/03 14:46:41;;;;;;;;;;;;;;;;;;5090610;28;20373;-48
2022/03/03 14:49:08;;;;;;;;;;;;;;;;;;5076219;28;20397;-49
2022/03/03 14:51:34;;;;;;;;;;;;;;;;;;5076114;28;20003;-51
2022/03/03 14:53:59;;;;;;;;;;;;;;;;;;5075612;28;20033;-49
2022/03/03 14:56:26;;;;;;;;;;;;;;;;;;5075228;28;19913;-50
2022/03/03 14:58:52;;;;;;;;;;;;;;;;;;5076886;28;19909;-48
2022/03/03 15:01:18;;;;;;;;;;;;;;;;;;5076065;28;20256;-52
2022/03/03 15:03:45;;;;;;;;;;;;;;;;;;5076057;28;20248;-48
2022/03/03 15:06:10;;;;;;;;;;;;;;;;;;5075312;28;19913;-48
2022/03/03 15:08:35;;;;;;;;;;;;;;;;;;5057895;28;19908;-49
2022/03/03 15:11:00;;;;;;;;;;;;;;;;;;5075754;28;19938;-49
2022/03/03 15:13:27;;;;;;;;;;;;;;;;;;5075899;28;19959;-51
2022/03/03 15:15:52;;;;;;;;;;;;;;;;;;5076155;28;19979;-51
2022/03/03 15:18:18;;;;;;;;;;;;;;;;;;5076866;28;20013;-51
2022/03/03 15:20:43;;;;;;;;;;;;;;;;;;5075932;28;20314;-52
2022/03/03 15:23:08;;;;;;;;;;;;;;;;;;5076521;28;19915;-48
2022/03/03 15:25:34;;;;;;;;;;;;;;;;;;5079108;28;19920;-49
2022/03/03 15:27:59;;;;;;;;;;;;;;;;;;5076779;28;19919;-49
2022/03/03 15:30:24;;;;;;;;;;;;;;;;;;5077875;28;19917;-52
2022/03/03 15:32:49;;;;;;;;;;;;;;;;;;5075952;28;19915;-49
2022/03/03 15:37:58;;;;;;;;;;;;;;;;;;5084229;28;20518;-49
2022/03/03 15:40:23;;;;;;;;;;;;;;;;;;5096004;28;19912;-49
2022/03/03 15:42:48;;;;;;;;;;;;;;;;;;5096021;28;20020;-48
2022/03/03 15:45:13;;;;;;;;;;;;;;;;;;5089619;28;19913;-48
2022/03/03 15:47:39;;;;;;;;;;;;;;;;;;5075796;28;19923;-49
2022/03/03 15:50:04;;;;;;;;;;;;;;;;;;5077717;28;19916;-49
2022/03/03 15:52:29;;;;;;;;;;;;;;;;;;5052840;23;19956;-50
2022/03/03 15:54:56;;;;;;;;;;;;;;;;;;5033661;28;20398;-49
2022/03/03 15:57:21;;;;;;;;;;;;;;;;;;5032058;28;20108;-49
2022/03/03 15:59:46;;;;;;;;;;;;;;;;;;5052102;28;20050;-49
2022/03/03 16:02:13;;;;;;;;;;;;;;;;;;5055052;28;19962;-50
2022/03/03 16:04:38;;;;;;;;;;;;;;;;;;5054809;28;20393;-51
2022/03/03 16:07:03;;;;;;;;;;;;;;;;;;5054195;28;20003;-49
2022/03/03 16:09:33;;;;;;;;;;;;;;;;;;5054258;28;19921;-49
2022/03/03 16:11:58;;;;;;;;;;;;;;;;;;5055063;28;19909;-52
2022/03/03 16:14:23;;;;;;;;;;;;;;;;;;5055039;28;19920;-50
2022/03/03 16:16:48;;;;;;;;;;;;;;;;;;5053857;28;19912;-49
2022/03/03 16:19:16;;;;;;;;;;;;;;;;;;5053897;28;19951;-52
2022/03/03 16:21:42;;;;;;;;;;;;;;;;;;5054649;28;19909;-49
2022/03/03 16:24:07;;;;;;;;;;;;;;;;;;5053695;28;19919;-51
2022/03/03 16:26:32;;;;;;;;;;;;;;;;;;5047238;28;19913;-50
2022/03/03 16:28:57;;;;;;;;;;;;;;;;;;5035400;28;20028;-49
2022/03/03 16:31:22;;;;;;;;;;;;;;;;;;5054657;28;19984;-49
2022/03/03 16:33:47;;;;;;;;;;;;;;;;;;5065169;28;19911;-51
2022/03/03 16:36:12;;;;;;;;;;;;;;;;;;5073811;28;19919;-50